Latest Coastal Weather Observations for Redcliffe

IDQ60701

Issued at 9:21 am EST Wednesday 25 May 2016 (issued every 10 minutes, with the page automatically refreshed every 10 minutes)

About coastal observations | Map of coastal stations | Coastal observations for QLD | Marine services | Other Formats
Station Details ID: 040958 Name: REDCLIFFE Lat: -27.22 Lon: 153.09 Height: 12.6 m
Data from the previous 72 hours. | See also: Recent months at Redcliffe
Date/Time
EST
Temp

°C
Wind Pressure Rain
since 9am
mm
Weather Cloud Vis
km
Sea
Height
m
Swell
Dir
 
Speed
knots
Gust
knots
hPa Trend Height
m
Period
s
Dir
25/09:00am 17.4 SW 6 7 1018.1 - 0.0 - - - - - - -
25/08:30am 15.8 WSW 5 7 1018.0 - 0.0 - - - - - - -
25/08:00am 14.2 SW 5 6 1017.9 - 0.0 - - - - - - -
25/07:30am 12.6 WSW 4 5 1017.6 - 0.0 - - - - - - -
25/07:00am 10.9 SW 5 6 1017.4 - 0.0 - - - - - - -
25/06:30am 10.3 SW 4 5 1017.2 - 0.0 - - - - - - -
25/06:00am 11.3 SW 4 5 1016.8 - 0.0 - - - - - - -
25/05:30am 10.5 WSW 3 4 1016.5 - 0.0 - - - - - - -
25/05:00am 10.5 CALM 0 0 1016.4 - 0.0 - - - - - - -
25/04:30am 11.9 NW 2 5 1016.2 - 0.0 - - - - - - -
25/04:00am 12.8 NW 5 6 1016.2 - 0.0 - - - - - - -
25/03:30am 13.4 WNW 5 7 1016.3 - 0.0 - - - - - - -
25/03:00am 13.7 WNW 7 8 1016.3 - 0.0 - - - - - - -
25/02:30am 14.4 WNW 6 8 1016.2 - 0.0 - - - - - - -
25/02:00am 15.0 W 6 7 1016.4 - 0.0 - - - - - - -
25/01:30am 15.2 WNW 6 7 1016.8 - 0.0 - - - - - - -
25/01:00am 16.1 W 4 5 1017.0 - 0.0 - - - - - - -
25/12:30am 15.5 WNW 5 6 1017.2 - 0.0 - - - - - - -
25/12:00am 16.2 W 6 7 1017.3 - 0.0 - - - - - - -
 
Date/Time
EST
Temp

°C
Wind Pressure Rain
since 9am
mm
Weather Cloud Vis
km
Sea
Height
m
Swell
Dir
 
Speed
knots
Gust
knots
hPa Trend Height
m
Period
s
Dir
24/11:30pm 16.5 WNW 6 8 1017.3 - 0.0 - - - - - - -
24/11:00pm 16.8 NW 5 7 1017.2 - 0.0 - - - - - - -
24/10:30pm 16.8 NW 6 8 1017.3 - 0.0 - - - - - - -
24/10:00pm 17.3 NW 5 7 1017.4 - 0.0 - - - - - - -
24/09:30pm 16.7 NW 5 8 1017.9 - 0.0 - - - - - - -
24/09:00pm 17.2 NW 6 9 1017.7 - 0.0 - - - - - - -
24/08:30pm 17.6 WNW 5 6 1017.6 - 0.0 - - - - - - -
24/08:00pm 17.6 W 5 5 1017.4 - 0.0 - - - - - - -
24/07:30pm 18.4 E 3 5 1017.2 - 0.0 - - - - - - -
24/07:00pm 19.8 E 6 7 1016.9 - 0.0 - - - - - - -
24/06:30pm 20.7 ESE 7 9 1016.7 - 0.0 - - - - - - -
24/06:00pm 21.0 ESE 8 9 1016.4 - 0.0 - - - - - - -
24/05:30pm 21.3 ESE 9 10 1016.0 - 0.0 - - - - - - -
24/05:00pm 21.6 ESE 10 11 1015.6 - 0.0 - - - - - - -
24/04:30pm 22.3 ESE 10 12 1015.4 - 0.0 - - - - - - -
24/04:00pm 22.7 ESE 10 11 1015.3 - 0.0 - - - - - - -
24/03:30pm 23.2 ESE 9 10 1015.3 - 0.0 - - - - - - -
24/03:00pm 23.7 E 10 12 1015.1 - 0.0 - - - - - - -
24/02:30pm 23.4 E 10 11 1014.9 - 0.0 - - - - - - -
24/02:00pm 23.5 ESE 9 11 1014.9 - 0.0 - - - - - - -
24/01:30pm 23.9 ESE 10 12 1015.0 - 0.0 - - - - - - -
24/01:00pm 23.8 ESE 10 12 1015.4 - 0.0 - - - - - - -
24/12:30pm 24.5 SE 12 14 1015.6 - 0.0 - - - - - - -
24/12:00pm 23.8 SSE 15 16 1016.1 - 0.0 - - - - - - -
24/11:30am 24.3 SSE 13 15 1016.6 - 0.0 - - - - - - -
24/11:00am 24.3 SSE 14 16 1017.0 - 0.0 - - - - - - -
24/10:30am 24.9 S 9 13 1017.5 - 0.0 - - - - - - -
24/10:00am 24.3 S 8 11 1017.7 - 0.0 - - - - - - -
24/09:30am 23.4 S 6 8 1017.9 - 0.0 - - - - - - -
24/09:00am 22.1 SSE 7 8 1017.9 - 0.0 - - - - - - -
24/08:30am 21.2 S 11 17 1017.6 - 0.0 - - - - - - -
24/08:25am 21.3 SSE 11 17 1017.5 - 0.0 - - - - - - -
24/08:00am 19.5 S 5 7 1017.1 - 0.0 - - - - - - -
24/07:30am 17.4 S 6 7 1016.8 - 0.0 - - - - - - -
24/07:00am 16.3 WSW 5 6 1016.7 - 0.0 - - - - - - -
24/06:30am 16.2 SSW 4 5 1016.3 - 0.0 - - - - - - -
24/06:00am 16.7 SSW 2 4 1016.0 - 0.0 - - - - - - -
24/05:30am 16.8 CALM 0 0 1015.6 - 0.0 - - - - - - -
24/05:00am 16.5 S 5 7 1015.5 - 0.0 - - - - - - -
24/04:30am 16.4 SW 3 4 1015.5 - 0.0 - - - - - - -
24/04:00am 16.3 SW 4 5 1015.4 - 0.0 - - - - - - -
24/03:30am 16.4 SW 5 6 1015.8 - 0.0 - - - - - - -
24/03:00am 16.6 SW 4 5 1015.7 - 0.0 - - - - - - -
24/02:30am 17.4 WNW 4 6 1015.7 - 0.0 - - - - - - -
24/02:00am 17.9 NW 5 6 1015.7 - 0.0 - - - - - - -
24/01:30am 18.4 NNW 6 8 1015.7 - 0.0 - - - - - - -
24/01:00am 18.9 NNW 6 7 1015.9 - 0.0 - - - - - - -
24/12:30am 18.9 NNW 7 8 1016.1 - 0.0 - - - - - - -
24/12:00am 19.3 NNW 8 9 1016.2 - 0.0 - - - - - - -
 
Date/Time
EST
Temp

°C
Wind Pressure Rain
since 9am
mm
Weather Cloud Vis
km
Sea
Height
m
Swell
Dir
 
Speed
knots
Gust
knots
hPa Trend Height
m
Period
s
Dir
23/11:30pm 19.2 NW 8 10 1016.4 - 0.0 - - - - - - -
23/11:00pm 19.4 NNW 8 10 1016.5 - 0.0 - - - - - - -
23/10:30pm 20.0 NNW 8 10 1016.6 - 0.0 - - - - - - -
23/10:00pm 20.6 NNW 9 13 1016.6 - 0.0 - - - - - - -
23/09:30pm 20.8 NNW 11 15 1016.7 - 0.0 - - - - - - -
23/09:00pm 20.7 N 11 14 1017.0 - 0.0 - - - - - - -
23/08:30pm 21.0 N 11 14 1017.0 - 0.0 - - - - - - -
23/08:00pm 21.2 N 11 15 1017.0 - 0.0 - - - - - - -
23/07:30pm 21.3 N 9 11 1017.0 - 0.0 - - - - - - -
23/07:00pm 21.5 N 10 14 1016.9 - 0.0 - - - - - - -
23/06:30pm 21.7 N 9 14 1016.5 - 0.0 - - - - - - -
23/06:00pm 21.9 N 10 14 1016.3 - 0.0 - - - - - - -
23/05:30pm 22.2 N 14 17 1015.9 - 0.0 - - - - - - -
23/05:00pm 22.5 N 14 17 1015.7 - 0.0 - - - - - - -
23/04:30pm 22.9 NNE 15 16 1015.5 - 0.0 - - - - - - -
23/04:00pm 23.5 NNE 14 15 1015.6 - 0.0 - - - - - - -
23/03:30pm 24.2 NE 14 15 1015.4 - 0.0 - - - - - - -
23/03:00pm 23.8 NE 12 14 1015.3 - 0.0 - - - - - - -
23/02:30pm 24.2 NE 11 14 1015.5 - 0.0 - - - - - - -
23/02:00pm 24.0 NE 10 12 1015.7 - 0.0 - - - - - - -
23/01:30pm 24.1 NE 10 11 1016.0 - 0.0 - - - - - - -
23/01:00pm 24.0 NE 8 9 1016.5 - 0.0 - - - - - - -
23/12:30pm 24.5 ENE 7 8 1017.0 - 0.0 - - - - - - -
23/12:00pm 24.6 ENE 7 8 1017.7 - 0.0 - - - - - - -
23/11:30am 24.3 NE 6 7 1018.6 - 0.0 - - - - - - -
23/11:00am 22.7 NE 6 7 1019.0 - 0.0 - - - - - - -
23/10:30am 23.0 ENE 5 6 1019.7 - 0.0 - - - - - - -
23/10:00am 22.3 ENE 4 5 1020.2 - 0.0 - - - - - - -
23/09:30am 20.8 NE 4 4 1020.7 - 0.0 - - - - - - -
23/09:00am 20.5 NE 2 4 1020.9 - 0.0 - - - - - - -
23/08:30am 19.1 CALM 0 0 1020.9 - 0.0 - - - - - - -
23/08:00am 17.1 CALM 0 3 1021.0 - 0.0 - - - - - - -
23/07:30am 16.7 SW 5 5 1020.7 - 0.0 - - - - - - -
23/07:00am 16.0 WSW 5 6 1020.7 - 0.0 - - - - - - -
23/06:30am 15.5 SW 6 8 1020.2 - 0.0 - - - - - - -
23/06:00am 15.6 SW 6 7 1020.1 - 0.0 - - - - - - -
23/05:30am 15.6 SW 5 7 1020.1 - 0.0 - - - - - - -
23/05:00am 15.6 SW 7 9 1019.9 - 0.0 - - - - - - -
23/04:30am 15.8 SW 7 9 1019.8 - 0.0 - - - - - - -
23/04:00am 15.8 WSW 7 9 1019.8 - 0.0 - - - - - - -
23/03:30am 16.1 WSW 7 9 1020.1 - 0.0 - - - - - - -
23/03:00am 16.1 WSW 8 9 1019.9 - 0.0 - - - - - - -
23/02:30am 15.9 WSW 6 7 1020.1 - 0.0 - - - - - - -
23/02:00am 16.0 WSW 7 9 1020.5 - 0.0 - - - - - - -
23/01:30am 16.3 W 6 7 1020.9 - 0.0 - - - - - - -
23/01:00am 16.5 W 6 7 1021.1 - 0.0 - - - - - - -
23/12:30am 16.5 W 6 8 1021.2 - 0.0 - - - - - - -
23/12:00am 16.7 WSW 6 7 1021.3 - 0.0 - - - - - - -
 
Date/Time
EST
Temp

°C
Wind Pressure Rain
since 9am
mm
Weather Cloud Vis
km
Sea
Height
m
Swell
Dir
 
Speed
knots
Gust
knots
hPa Trend Height
m
Period
s
Dir
22/11:30pm 16.9 WSW 6 8 1021.5 - 0.0 - - - - - - -
22/11:00pm 17.2 WSW 4 6 1021.5 - 0.0 - - - - - - -
22/10:30pm 17.7 W 4 5 1021.7 - 0.0 - - - - - - -
22/10:00pm 18.2 E 5 5 1021.8 - 0.0 - - - - - - -
22/09:30pm 19.1 E 5 6 1022.1 - 0.0 - - - - - - -
22/09:00pm 19.6 ESE 6 7 1022.0 - 0.0 - - - - - - -
22/08:30pm 19.8 E 7 8 1022.2 - 0.0 - - - - - - -
22/08:00pm 20.1 E 7 8 1022.2 - 0.0 - - - - - - -
22/07:30pm 20.9 E 7 8 1022.2 - 0.0 - - - - - - -
22/07:00pm 21.1 E 7 8 1022.2 - 0.0 - - - - - - -
22/06:30pm 21.4 ESE 8 8 1021.9 - 0.0 - - - - - - -
22/06:00pm 21.6 E 7 8 1021.8 - 0.0 - - - - - - -
22/05:30pm 21.8 E 7 9 1021.7 - 0.0 - - - - - - -
22/05:00pm 22.3 E 9 9 1021.7 - 0.0 - - - - - - -
22/04:30pm 22.8 E 9 10 1021.5 - 0.0 - - - - - - -
22/04:00pm 23.2 E 9 11 1021.4 - 0.0 - - - - - - -
22/03:30pm 23.5 ESE 8 10 1021.4 - 0.0 - - - - - - -
22/03:00pm 23.6 ESE 7 8 1021.4 - 0.0 - - - - - - -
22/02:30pm 23.7 E 8 9 1021.3 - 0.0 - - - - - - -
22/02:00pm 23.8 E 9 10 1021.3 - 0.0 - - - - - - -
22/01:30pm 23.8 ESE 8 9 1021.6 - 0.0 - - - - - - -
22/01:00pm 24.1 ESE 7 8 1022.0 - 0.0 - - - - - - -
22/12:30pm 23.6 SSE 8 9 1022.5 - 0.0 - - - - - - -
22/12:00pm 23.9 SSE 9 10 1022.9 - 0.0 - - - - - - -
22/11:30am 23.6 SE 8 9 1023.3 - 0.0 - - - - - - -
22/11:00am 24.5 SSE 8 9 1023.8 - 0.0 - - - - - - -
22/10:30am 24.1 S 9 10 1024.2 - 0.0 - - - - - - -
22/10:00am 23.3 S 9 11 1024.5 - 0.0 - - - - - - -
22/09:30am 22.6 S 9 11 1024.5 - 0.0 - - - - - - -

Other Formats:

Comma delimited format used in spreadsheet applications
http://www.bom.gov.au/fwo/IDQ60701/IDQ60701.95591.axf

JavaScript Object Notation format (JSON) in row-major order
http://www.bom.gov.au/fwo/IDQ60701/IDQ60701.95591.json